Ana Sayfa
METAR-TAF:

METAR-TAF

Havaalanları :

El Papalon

San Miguel, El Salvador

Enlem: 13-27N, Boylam: 088-07W, yükseklik: 80 m

Güncel hava durumu gözlemi

Rapor saat 20:50 UTC de 14 saat ve 39 dakika önce yapıldı.
Rüzgar güneydan 3 kt
Sıcaklık 40°C
Nem 25%
Basınç 1006 hPa
Görüş mesafesi 10 km veya daha fazla
3300 ft yükseklikte az bulutlu

METAR: MSSM 162050Z 18003KT 9999 FEW033 40/16 Q1006 A2971

Saat: 05:29 (11:29 UTC)


TAF: eksik

4.000'den fazla havaalanı için hava durumu gözlemleri ve tahminleri (METAR ve TAF raporları).

Kullanılabilir istasyonlar harita üzerinde sarı ve kırmızı noktalarla gösterilir.

İstasyonun adını görmek için fareyi noktanın üzerinde gezdirin.

Sonrasında hava gözlem ve tahminlerini görmek için tıklayın.

Haritayı değiştirmek için: yaklaştırmak için siyah artı işaretli yeşil düğmeye ve uzaklaştırmak için de eksi işaretli düğmeye hızla tıklayın; bitişik haritalar için yeşil okları kullanın.


METAR-TAF: